Time;durP1;ratioP1;P1;durP2;ratioP2;P2;SDS_P1;SDS_P2;PMS_P1;PMS_P2;Temp;Humidity;BMP_temperature;BMP_pressure;BME280_temperature;BME280_humidity;BME280_pressure;Samples;Min_cycle;Max_cycle;Signal;HPM_P1;HPM_P2
2023/01/27 00:00:16;;;;;;;;;;;;;;;;;;5044451;28;43021;-74
2023/01/27 00:02:42;;;;;;;;;;;;;;;;;;5043229;28;43592;-74
2023/01/27 00:05:08;;;;;;;;;;;;;;;;;;5043894;28;42973;-74
2023/01/27 00:07:34;;;;;;;;;;;;;;;;;;5042479;28;42897;-74
2023/01/27 00:10:00;;;;;;;;;;;;;;;;;;5043599;28;43510;-74
2023/01/27 00:15:10;;;;;;;;;;;;;;;;;;5042752;28;42912;-74
2023/01/27 00:17:36;;;;;;;;;;;;;;;;;;5042061;28;44016;-74
2023/01/27 00:20:02;;;;;;;;;;;;;;;;;;5042662;28;42877;-73
2023/01/27 00:25:12;;;;;;;;;;;;;;;;;;5043985;28;42906;-74
2023/01/27 00:27:38;;;;;;;;;;;;;;;;;;5042809;28;42959;-74
2023/01/27 00:30:04;;;;;;;;;;;;;;;;;;5043176;28;42976;-78
2023/01/27 00:35:17;;;;;;;;;;;;;;;;;;5042256;28;42968;-83
2023/01/27 00:37:43;;;;;;;;;;;;;;;;;;5043300;28;42861;-81
2023/01/27 00:40:09;;;;;;;;;;;;;;;;;;5043457;28;42882;-85
2023/01/27 00:42:35;;;;;;;;;;;;;;;;;;5044425;28;42953;-85
2023/01/27 00:47:46;;;;;;;;;;;;;;;;;;5046358;28;42904;-84
2023/01/27 00:50:12;;;;;;;;;;;;;;;;;;5028415;28;43016;-81
2023/01/27 00:52:38;;;;;;;;;;;;;;;;;;5046055;28;42971;-85
2023/01/27 00:55:04;;;;;;;;;;;;;;;;;;5046835;28;43048;-85
2023/01/27 00:57:30;;;;;;;;;;;;;;;;;;5046170;28;42885;-84
2023/01/27 00:59:56;;;;;;;;;;;;;;;;;;5047234;28;42947;-75
2023/01/27 01:02:22;;;;;;;;;;;;;;;;;;5046569;28;43481;-75
2023/01/27 01:04:48;;;;;;;;;;;;;;;;;;5047247;28;43385;-81
2023/01/27 01:07:14;;;;;;;;;;;;;;;;;;5043933;28;43012;-77
2023/01/27 01:09:40;;;;;;;;;;;;;;;;;;5042529;28;43063;-79
2023/01/27 01:12:05;;;;;;;;;;;;;;;;;;5044712;28;43004;-77
2023/01/27 01:14:31;;;;;;;;;;;;;;;;;;5037644;28;43035;-75
2023/01/27 01:16:57;;;;;;;;;;;;;;;;;;5046086;28;44018;-74
2023/01/27 01:19:23;;;;;;;;;;;;;;;;;;5046671;28;42867;-75
2023/01/27 01:21:49;;;;;;;;;;;;;;;;;;5046202;28;43624;-75
2023/01/27 01:24:15;;;;;;;;;;;;;;;;;;5046831;28;43159;-74
2023/01/27 01:26:41;;;;;;;;;;;;;;;;;;5046124;28;42917;-74
2023/01/27 01:29:07;;;;;;;;;;;;;;;;;;5027791;28;42967;-76
2023/01/27 01:31:33;;;;;;;;;;;;;;;;;;5027725;28;44674;-83
2023/01/27 01:33:59;;;;;;;;;;;;;;;;;;5046503;28;42911;-84
2023/01/27 01:36:25;;;;;;;;;;;;;;;;;;5048069;28;42898;-83
2023/01/27 01:38:50;;;;;;;;;;;;;;;;;;5045520;28;42844;-81
2023/01/27 01:41:16;;;;;;;;;;;;;;;;;;5046011;28;42916;-81
2023/01/27 01:43:42;;;;;;;;;;;;;;;;;;5046466;28;42920;-76
2023/01/27 01:46:08;;;;;;;;;;;;;;;;;;5046660;28;43065;-72
2023/01/27 01:48:34;;;;;;;;;;;;;;;;;;5045712;28;43438;-82
2023/01/27 01:51:00;;;;;;;;;;;;;;;;;;5040767;28;43111;-84
2023/01/27 01:53:28;;;;;;;;;;;;;;;;;;5045750;28;42955;-76
2023/01/27 01:55:54;;;;;;;;;;;;;;;;;;5044567;28;43541;-75
2023/01/27 01:58:20;;;;;;;;;;;;;;;;;;5043544;28;42960;-85
2023/01/27 02:00:46;;;;;;;;;;;;;;;;;;5045171;28;43535;-86
2023/01/27 02:03:11;;;;;;;;;;;;;;;;;;5034028;28;42913;-84
2023/01/27 02:05:38;;;;;;;;;;;;;;;;;;5044238;28;42910;-85
2023/01/27 02:08:03;;;;;;;;;;;;;;;;;;5044091;28;42972;-76
2023/01/27 02:10:29;;;;;;;;;;;;;;;;;;5045164;28;43548;-80
2023/01/27 02:12:55;;;;;;;;;;;;;;;;;;5043868;28;43116;-79
2023/01/27 02:15:21;;;;;;;;;;;;;;;;;;5044205;28;43666;-76
2023/01/27 02:17:47;;;;;;;;;;;;;;;;;;5045590;28;43272;-77
2023/01/27 02:20:13;;;;;;;;;;;;;;;;;;5044826;28;43135;-75
2023/01/27 02:22:39;;;;;;;;;;;;;;;;;;5045471;28;43003;-85
2023/01/27 02:25:05;;;;;;;;;;;;;;;;;;5045569;28;43617;-86
2023/01/27 02:27:31;;;;;;;;;;;;;;;;;;5045618;28;42940;-84
2023/01/27 02:29:57;;;;;;;;;;;;;;;;;;5045641;28;43054;-78
2023/01/27 02:32:22;;;;;;;;;;;;;;;;;;5044748;28;42858;-84
2023/01/27 02:34:48;;;;;;;;;;;;;;;;;;5045441;28;43158;-82
2023/01/27 02:37:15;;;;;;;;;;;;;;;;;;5045114;28;42929;-85
2023/01/27 02:39:41;;;;;;;;;;;;;;;;;;5044903;28;42976;-85
2023/01/27 02:42:07;;;;;;;;;;;;;;;;;;5044366;28;43114;-76
2023/01/27 02:44:33;;;;;;;;;;;;;;;;;;5044621;28;43527;-85
2023/01/27 02:46:59;;;;;;;;;;;;;;;;;;5045217;28;42902;-76
2023/01/27 02:49:25;;;;;;;;;;;;;;;;;;5045168;28;44183;-85
2023/01/27 02:51:52;;;;;;;;;;;;;;;;;;5045283;28;42897;-85
2023/01/27 02:54:18;;;;;;;;;;;;;;;;;;5044305;28;43017;-85
2023/01/27 02:56:44;;;;;;;;;;;;;;;;;;5044968;28;42952;-86
2023/01/27 02:59:09;;;;;;;;;;;;;;;;;;5043411;28;43008;-84
2023/01/27 03:01:35;;;;;;;;;;;;;;;;;;5044863;28;43070;-84
2023/01/27 03:04:01;;;;;;;;;;;;;;;;;;5044826;28;42963;-84
2023/01/27 03:06:27;;;;;;;;;;;;;;;;;;5039196;28;43329;-82
2023/01/27 03:08:53;;;;;;;;;;;;;;;;;;5040105;28;43093;-85
2023/01/27 03:14:03;;;;;;;;;;;;;;;;;;5042346;28;43078;-85
2023/01/27 03:19:13;;;;;;;;;;;;;;;;;;5043149;28;43006;-85
2023/01/27 03:21:40;;;;;;;;;;;;;;;;;;5044806;28;42943;-85
2023/01/27 03:24:06;;;;;;;;;;;;;;;;;;5043666;28;42796;-85
2023/01/27 03:26:31;;;;;;;;;;;;;;;;;;5045085;28;43244;-75
2023/01/27 03:31:42;;;;;;;;;;;;;;;;;;5044201;28;42952;-79
2023/01/27 03:34:08;;;;;;;;;;;;;;;;;;5042705;28;43467;-83
2023/01/27 03:47:32;;;;;;;;;;;;;;;;;;5044797;28;43376;-84
2023/01/27 03:49:58;;;;;;;;;;;;;;;;;;5044051;28;44119;-84
2023/01/27 03:52:24;;;;;;;;;;;;;;;;;;5044241;28;43003;-85
2023/01/27 03:54:50;;;;;;;;;;;;;;;;;;5044604;28;43231;-84
2023/01/27 03:57:16;;;;;;;;;;;;;;;;;;5044160;28;42822;-86
2023/01/27 03:59:42;;;;;;;;;;;;;;;;;;5025375;28;44488;-82
2023/01/27 04:07:37;;;;;;;;;;;;;;;;;;5043547;28;42965;-84
2023/01/27 04:10:03;;;;;;;;;;;;;;;;;;5042317;28;43687;-84
2023/01/27 04:12:29;;;;;;;;;;;;;;;;;;5025935;28;42738;-84
2023/01/27 04:14:55;;;;;;;;;;;;;;;;;;5043358;28;43608;-85
2023/01/27 04:17:21;;;;;;;;;;;;;;;;;;5044632;28;42929;-84
2023/01/27 04:19:46;;;;;;;;;;;;;;;;;;5046850;28;43682;-85
2023/01/27 04:22:12;;;;;;;;;;;;;;;;;;5047123;28;43880;-84
2023/01/27 04:24:38;;;;;;;;;;;;;;;;;;5047398;28;43025;-85
2023/01/27 04:27:04;;;;;;;;;;;;;;;;;;5048071;28;43054;-84
2023/01/27 04:29:30;;;;;;;;;;;;;;;;;;5047478;28;42873;-83
2023/01/27 04:31:56;;;;;;;;;;;;;;;;;;5047503;28;43235;-85
2023/01/27 04:34:22;;;;;;;;;;;;;;;;;;5045528;28;42956;-83
2023/01/27 04:36:48;;;;;;;;;;;;;;;;;;5047401;28;43051;-85
2023/01/27 04:39:14;;;;;;;;;;;;;;;;;;5046914;28;43368;-83
2023/01/27 04:41:40;;;;;;;;;;;;;;;;;;5043231;28;43914;-85
2023/01/27 04:44:06;;;;;;;;;;;;;;;;;;5046816;28;42960;-79
2023/01/27 04:46:32;;;;;;;;;;;;;;;;;;5042697;28;42960;-83
2023/01/27 04:48:57;;;;;;;;;;;;;;;;;;5047436;28;42931;-85
2023/01/27 04:51:23;;;;;;;;;;;;;;;;;;5047027;28;43382;-84
2023/01/27 04:53:49;;;;;;;;;;;;;;;;;;5046075;28;42978;-84
2023/01/27 04:56:15;;;;;;;;;;;;;;;;;;5046846;28;43283;-83
2023/01/27 04:58:41;;;;;;;;;;;;;;;;;;5037047;28;42880;-85
2023/01/27 05:01:07;;;;;;;;;;;;;;;;;;5044965;28;43033;-85
2023/01/27 05:03:33;;;;;;;;;;;;;;;;;;5036557;28;43371;-84
2023/01/27 05:05:59;;;;;;;;;;;;;;;;;;5044982;28;43232;-74
2023/01/27 05:08:25;;;;;;;;;;;;;;;;;;5043527;28;44016;-75
2023/01/27 05:10:51;;;;;;;;;;;;;;;;;;5039766;28;42996;-74
2023/01/27 05:13:17;;;;;;;;;;;;;;;;;;5026976;28;42956;-81
2023/01/27 05:15:43;;;;;;;;;;;;;;;;;;5029173;28;42996;-85
2023/01/27 05:18:09;;;;;;;;;;;;;;;;;;5041203;28;42979;-77
2023/01/27 05:20:35;;;;;;;;;;;;;;;;;;5030373;28;42960;-75
2023/01/27 05:25:45;;;;;;;;;;;;;;;;;;5033021;28;43051;-75
2023/01/27 05:28:11;;;;;;;;;;;;;;;;;;5042017;28;43625;-75
2023/01/27 05:30:37;;;;;;;;;;;;;;;;;;5040749;28;43082;-77
2023/01/27 05:33:07;;;;;;;;;;;;;;;;;;5034994;28;63758;-78
2023/01/27 05:35:32;;;;;;;;;;;;;;;;;;5045664;28;42976;-76
2023/01/27 05:37:58;;;;;;;;;;;;;;;;;;5046275;28;43556;-84
2023/01/27 05:40:24;;;;;;;;;;;;;;;;;;5045481;28;42963;-86
2023/01/27 05:42:50;;;;;;;;;;;;;;;;;;5027555;28;43407;-77
2023/01/27 05:45:16;;;;;;;;;;;;;;;;;;5045707;28;43052;-81
2023/01/27 05:47:42;;;;;;;;;;;;;;;;;;5040284;28;42896;-86
2023/01/27 05:50:08;;;;;;;;;;;;;;;;;;5040888;28;44017;-75
2023/01/27 05:52:34;;;;;;;;;;;;;;;;;;5033058;28;43621;-80
2023/01/27 05:55:00;;;;;;;;;;;;;;;;;;5043904;28;42979;-84
2023/01/27 05:57:25;;;;;;;;;;;;;;;;;;5044948;28;43645;-85
2023/01/27 05:59:51;;;;;;;;;;;;;;;;;;5045596;28;43212;-84
2023/01/27 06:02:17;;;;;;;;;;;;;;;;;;5045378;28;42912;-84
2023/01/27 06:04:43;;;;;;;;;;;;;;;;;;5045123;28;43056;-84
2023/01/27 06:07:09;;;;;;;;;;;;;;;;;;5045620;28;42849;-80
2023/01/27 06:09:37;;;;;;;;;;;;;;;;;;5045302;28;43001;-84
2023/01/27 06:12:03;;;;;;;;;;;;;;;;;;5041066;28;43100;-83
2023/01/27 06:14:29;;;;;;;;;;;;;;;;;;5044628;28;42948;-86
2023/01/27 06:16:55;;;;;;;;;;;;;;;;;;5043956;28;43129;-84
2023/01/27 06:19:21;;;;;;;;;;;;;;;;;;5044447;28;42999;-84
2023/01/27 06:21:47;;;;;;;;;;;;;;;;;;5042680;28;42972;-84
2023/01/27 06:24:12;;;;;;;;;;;;;;;;;;5044726;28;43046;-84
2023/01/27 06:26:38;;;;;;;;;;;;;;;;;;5045492;28;42955;-83
2023/01/27 06:29:04;;;;;;;;;;;;;;;;;;5045544;28;42991;-81
2023/01/27 06:31:30;;;;;;;;;;;;;;;;;;5044721;28;43904;-83
2023/01/27 06:33:56;;;;;;;;;;;;;;;;;;5045086;28;43058;-81
2023/01/27 06:36:22;;;;;;;;;;;;;;;;;;5044909;28;42829;-82
2023/01/27 06:38:48;;;;;;;;;;;;;;;;;;5044721;28;42999;-84
2023/01/27 06:41:14;;;;;;;;;;;;;;;;;;5043378;28;42963;-80
2023/01/27 06:43:40;;;;;;;;;;;;;;;;;;5043436;28;43105;-76
2023/01/27 06:46:06;;;;;;;;;;;;;;;;;;5021367;28;44214;-81
2023/01/27 06:48:31;;;;;;;;;;;;;;;;;;5026958;28;43346;-88
2023/01/27 06:50:57;;;;;;;;;;;;;;;;;;5026853;28;43701;-85
2023/01/27 06:53:23;;;;;;;;;;;;;;;;;;5044681;28;42935;-87
2023/01/27 06:55:49;;;;;;;;;;;;;;;;;;5045017;28;43611;-80
2023/01/27 06:58:15;;;;;;;;;;;;;;;;;;5044935;28;42969;-83
2023/01/27 07:00:41;;;;;;;;;;;;;;;;;;5044713;28;43420;-84
2023/01/27 07:03:07;;;;;;;;;;;;;;;;;;5044060;28;42916;-87
2023/01/27 07:05:33;;;;;;;;;;;;;;;;;;5043914;28;42928;-78
2023/01/27 07:07:59;;;;;;;;;;;;;;;;;;5044697;28;42919;-83
2023/01/27 07:10:25;;;;;;;;;;;;;;;;;;5044986;28;42864;-87
2023/01/27 07:12:51;;;;;;;;;;;;;;;;;;5026635;28;42984;-87
2023/01/27 07:15:16;;;;;;;;;;;;;;;;;;5045081;28;42848;-87
2023/01/27 07:17:42;;;;;;;;;;;;;;;;;;5044325;28;43324;-87
2023/01/27 07:20:08;;;;;;;;;;;;;;;;;;5044764;28;42958;-88
2023/01/27 07:22:34;;;;;;;;;;;;;;;;;;5044227;28;43049;-83
2023/01/27 07:25:00;;;;;;;;;;;;;;;;;;5044085;28;42972;-80
2023/01/27 07:27:27;;;;;;;;;;;;;;;;;;5043538;28;43054;-87
2023/01/27 07:29:53;;;;;;;;;;;;;;;;;;5044176;28;43505;-87
2023/01/27 07:32:18;;;;;;;;;;;;;;;;;;5044215;28;43173;-85
2023/01/27 07:34:44;;;;;;;;;;;;;;;;;;5044416;28;43672;-87
2023/01/27 07:37:10;;;;;;;;;;;;;;;;;;5044308;28;42923;-88
2023/01/27 07:39:36;;;;;;;;;;;;;;;;;;5044581;28;42981;-81
2023/01/27 07:42:02;;;;;;;;;;;;;;;;;;5044518;28;42964;-83
2023/01/27 07:44:28;;;;;;;;;;;;;;;;;;5044648;28;42933;-88
2023/01/27 07:46:54;;;;;;;;;;;;;;;;;;5044675;28;42961;-87
2023/01/27 07:49:20;;;;;;;;;;;;;;;;;;5044445;28;43511;-86
2023/01/27 07:51:46;;;;;;;;;;;;;;;;;;5043967;28;42868;-87
2023/01/27 07:54:12;;;;;;;;;;;;;;;;;;5044758;28;42858;-87
2023/01/27 07:56:38;;;;;;;;;;;;;;;;;;5044324;28;42911;-83
2023/01/27 07:59:04;;;;;;;;;;;;;;;;;;5044086;28;43015;-86
2023/01/27 08:01:29;;;;;;;;;;;;;;;;;;5044036;28;42871;-87
2023/01/27 08:03:55;;;;;;;;;;;;;;;;;;5043674;28;43006;-87
2023/01/27 08:06:21;;;;;;;;;;;;;;;;;;5043060;28;42928;-83
2023/01/27 08:08:47;;;;;;;;;;;;;;;;;;5044242;28;42993;-87
2023/01/27 14:27:27;;;;;;;;;;;;;;;;;;2400046;28;45208;-86
2023/01/27 14:29:53;;;;;;;;;;;;;;;;;;5042524;28;43007;-88
2023/01/27 14:32:19;;;;;;;;;;;;;;;;;;5027780;28;44442;-82
2023/01/27 14:34:45;;;;;;;;;;;;;;;;;;5051534;28;43163;-87
2023/01/27 14:37:11;;;;;;;;;;;;;;;;;;5056918;28;42967;-89
2023/01/27 14:39:37;;;;;;;;;;;;;;;;;;5055233;28;43016;-89
2023/01/27 14:42:03;;;;;;;;;;;;;;;;;;5037745;28;44476;-89
2023/01/27 14:44:29;;;;;;;;;;;;;;;;;;5060115;28;42910;-89
2023/01/27 14:46:55;;;;;;;;;;;;;;;;;;5065759;28;43068;-87
2023/01/27 14:49:21;;;;;;;;;;;;;;;;;;5065857;28;42773;-90
2023/01/27 14:51:49;;;;;;;;;;;;;;;;;;5065852;28;42915;-88
2023/01/27 14:54:16;;;;;;;;;;;;;;;;;;5051353;28;42891;-87
2023/01/27 14:56:41;;;;;;;;;;;;;;;;;;5065327;28;42963;-90
2023/01/27 14:59:07;;;;;;;;;;;;;;;;;;5065106;28;43173;-89
2023/01/27 15:01:33;;;;;;;;;;;;;;;;;;5063375;28;42881;-87
2023/01/27 15:04:05;;;;;;;;;;;;;;;;;;5064557;28;43355;-86
2023/01/27 15:06:31;;;;;;;;;;;;;;;;;;5046243;28;45205;-85
2023/01/27 15:09:04;;;;;;;;;;;;;;;;;;5045976;28;42931;-88
2023/01/27 15:11:36;;;;;;;;;;;;;;;;;;5045846;28;44546;-84
2023/01/27 15:14:02;;;;;;;;;;;;;;;;;;5046203;28;42853;-84
2023/01/27 15:16:29;;;;;;;;;;;;;;;;;;5045268;28;43503;-86
2023/01/27 15:18:55;;;;;;;;;;;;;;;;;;5046606;28;43135;-88
2023/01/27 15:21:21;;;;;;;;;;;;;;;;;;5064757;28;43266;-84
2023/01/27 15:23:47;;;;;;;;;;;;;;;;;;5055675;28;42950;-90
2023/01/27 15:26:13;;;;;;;;;;;;;;;;;;5064680;28;43131;-88
2023/01/27 15:28:39;;;;;;;;;;;;;;;;;;5048592;28;43290;-87
2023/01/27 15:31:07;;;;;;;;;;;;;;;;;;5044470;28;43053;-86
2023/01/27 15:33:33;;;;;;;;;;;;;;;;;;5064852;28;43219;-82
2023/01/27 15:35:59;;;;;;;;;;;;;;;;;;5064070;28;43497;-76
2023/01/27 15:38:24;;;;;;;;;;;;;;;;;;5045699;28;43254;-77
2023/01/27 15:40:50;;;;;;;;;;;;;;;;;;5064206;28;43922;-83
2023/01/27 15:43:29;;;;;;;;;;;;;;;;;;;;;
2023/01/27 15:45:56;;;;;;;;;;;;;;;;;;5062855;28;72958;-78
2023/01/27 15:48:22;;;;;;;;;;;;;;;;;;5064098;28;42894;-89
2023/01/27 15:50:47;;;;;;;;;;;;;;;;;;5064078;28;43513;-75
2023/01/27 15:53:13;;;;;;;;;;;;;;;;;;5064570;28;42943;-77
2023/01/27 15:55:39;;;;;;;;;;;;;;;;;;5056079;28;43844;-79
2023/01/27 15:58:05;;;;;;;;;;;;;;;;;;5058937;28;43016;-77
2023/01/27 16:00:31;;;;;;;;;;;;;;;;;;5048765;28;42939;-80
2023/01/27 16:02:57;;;;;;;;;;;;;;;;;;5046781;28;43062;-83
2023/01/27 16:05:23;;;;;;;;;;;;;;;;;;5053343;28;43045;-87
2023/01/27 16:07:49;;;;;;;;;;;;;;;;;;5060944;28;43305;-77
2023/01/27 16:10:15;;;;;;;;;;;;;;;;;;5054443;28;43467;-85
2023/01/27 16:12:42;;;;;;;;;;;;;;;;;;5056663;28;42930;-80
2023/01/27 16:15:08;;;;;;;;;;;;;;;;;;5057118;28;43070;-84
2023/01/27 16:17:34;;;;;;;;;;;;;;;;;;5065302;28;43238;-83
2023/01/27 16:20:00;;;;;;;;;;;;;;;;;;5060883;28;44119;-82
2023/01/27 16:22:27;;;;;;;;;;;;;;;;;;5068155;28;43142;-87
2023/01/27 16:24:57;;;;;;;;;;;;;;;;;;5067048;28;44361;-80
2023/01/27 16:27:23;;;;;;;;;;;;;;;;;;5065997;28;43060;-80
2023/01/27 16:29:49;;;;;;;;;;;;;;;;;;5061408;28;42930;-84
2023/01/27 16:32:16;;;;;;;;;;;;;;;;;;5062151;28;43085;-80
2023/01/27 16:34:42;;;;;;;;;;;;;;;;;;5067525;28;43695;-82
2023/01/27 16:37:07;;;;;;;;;;;;;;;;;;5067476;28;42931;-80
2023/01/27 16:39:33;;;;;;;;;;;;;;;;;;5065924;28;42881;-81
2023/01/27 16:41:59;;;;;;;;;;;;;;;;;;5069624;28;42982;-85
2023/01/27 16:44:25;;;;;;;;;;;;;;;;;;5068001;28;42962;-80
2023/01/27 16:46:51;;;;;;;;;;;;;;;;;;5054733;28;43091;-78
2023/01/27 16:49:17;;;;;;;;;;;;;;;;;;5061342;28;44007;-82
2023/01/27 16:51:43;;;;;;;;;;;;;;;;;;5052222;28;42951;-84
2023/01/27 16:54:09;;;;;;;;;;;;;;;;;;5060284;28;42966;-76
2023/01/27 16:56:35;;;;;;;;;;;;;;;;;;5054719;28;42906;-86
2023/01/27 16:59:01;;;;;;;;;;;;;;;;;;5057777;28;42933;-83
2023/01/27 17:01:27;;;;;;;;;;;;;;;;;;5055904;28;42991;-85
2023/01/27 17:03:53;;;;;;;;;;;;;;;;;;5049236;28;43810;-81
2023/01/27 17:06:18;;;;;;;;;;;;;;;;;;5049486;28;43022;-84
2023/01/27 17:08:44;;;;;;;;;;;;;;;;;;5062789;28;43973;-83
2023/01/27 17:11:10;;;;;;;;;;;;;;;;;;5057559;28;43097;-77
2023/01/27 17:13:36;;;;;;;;;;;;;;;;;;5063025;28;43054;-76
2023/01/27 17:16:02;;;;;;;;;;;;;;;;;;5041694;28;43317;-83
2023/01/27 17:18:28;;;;;;;;;;;;;;;;;;5064452;28;43229;-77
2023/01/27 17:20:54;;;;;;;;;;;;;;;;;;5065628;28;42998;-76
2023/01/27 17:23:20;;;;;;;;;;;;;;;;;;5057918;28;43486;-76
2023/01/27 17:25:46;;;;;;;;;;;;;;;;;;5052174;28;42964;-77
2023/01/27 17:28:12;;;;;;;;;;;;;;;;;;5046721;28;43223;-77
2023/01/27 17:30:38;;;;;;;;;;;;;;;;;;5065680;28;43137;-76
2023/01/27 17:33:04;;;;;;;;;;;;;;;;;;5060269;28;43676;-77
2023/01/27 17:35:31;;;;;;;;;;;;;;;;;;5061992;28;43105;-77
2023/01/27 17:37:57;;;;;;;;;;;;;;;;;;5053881;28;42982;-76
2023/01/27 17:40:23;;;;;;;;;;;;;;;;;;5062107;28;42952;-76
2023/01/27 17:42:49;;;;;;;;;;;;;;;;;;5046474;28;43744;-75
2023/01/27 17:45:15;;;;;;;;;;;;;;;;;;5047833;28;43251;-74
2023/01/27 17:47:41;;;;;;;;;;;;;;;;;;5058693;28;42923;-76
2023/01/27 17:50:07;;;;;;;;;;;;;;;;;;5065587;28;42942;-76
2023/01/27 17:52:33;;;;;;;;;;;;;;;;;;5066116;28;43524;-76
2023/01/27 17:54:59;;;;;;;;;;;;;;;;;;5066229;28;42868;-75
2023/01/27 17:57:26;;;;;;;;;;;;;;;;;;5065389;28;43515;-75
2023/01/27 17:59:52;;;;;;;;;;;;;;;;;;5066233;28;43956;-77
2023/01/27 18:02:18;;;;;;;;;;;;;;;;;;5066123;28;43596;-74
2023/01/27 18:04:45;;;;;;;;;;;;;;;;;;5065801;28;42891;-80
2023/01/27 18:07:11;;;;;;;;;;;;;;;;;;5066198;28;42991;-81
2023/01/27 18:09:37;;;;;;;;;;;;;;;;;;5046107;28;43312;-81
2023/01/27 18:12:03;;;;;;;;;;;;;;;;;;5065434;28;42925;-77
2023/01/27 18:14:29;;;;;;;;;;;;;;;;;;5066018;28;43084;-80
2023/01/27 18:16:55;;;;;;;;;;;;;;;;;;5065972;28;42883;-78
2023/01/27 18:19:22;;;;;;;;;;;;;;;;;;5065241;28;43039;-80
2023/01/27 18:21:48;;;;;;;;;;;;;;;;;;5064682;28;43824;-88
2023/01/27 18:24:14;;;;;;;;;;;;;;;;;;5065964;28;42899;-89
2023/01/27 18:26:39;;;;;;;;;;;;;;;;;;5065649;28;43948;-88
2023/01/27 18:29:05;;;;;;;;;;;;;;;;;;5065414;28;42934;-89
2023/01/27 18:31:32;;;;;;;;;;;;;;;;;;5046465;28;44224;-80
2023/01/27 18:33:59;;;;;;;;;;;;;;;;;;5065323;28;43418;-82
2023/01/27 18:36:24;;;;;;;;;;;;;;;;;;5045297;28;44861;-75
2023/01/27 18:38:51;;;;;;;;;;;;;;;;;;5065089;28;42951;-84
2023/01/27 18:41:17;;;;;;;;;;;;;;;;;;5064013;28;42918;-87
2023/01/27 18:43:43;;;;;;;;;;;;;;;;;;5064765;28;42978;-89
2023/01/27 18:46:09;;;;;;;;;;;;;;;;;;5064255;28;43646;-89
2023/01/27 18:48:35;;;;;;;;;;;;;;;;;;5064913;28;43260;-82
2023/01/27 18:51:00;;;;;;;;;;;;;;;;;;5065175;28;43017;-86
2023/01/27 18:53:26;;;;;;;;;;;;;;;;;;5065159;28;43028;-81
2023/01/27 18:55:52;;;;;;;;;;;;;;;;;;5065713;28;42880;-86
2023/01/27 18:58:18;;;;;;;;;;;;;;;;;;5059866;28;43057;-85
2023/01/27 19:00:44;;;;;;;;;;;;;;;;;;5052666;28;43881;-88
2023/01/27 19:03:10;;;;;;;;;;;;;;;;;;5057405;28;43130;-88
2023/01/27 19:05:36;;;;;;;;;;;;;;;;;;5049243;28;43956;-85
2023/01/27 19:08:02;;;;;;;;;;;;;;;;;;5062729;28;42817;-89
2023/01/27 19:10:28;;;;;;;;;;;;;;;;;;5064949;28;43510;-88
2023/01/27 19:12:54;;;;;;;;;;;;;;;;;;5064926;28;42902;-87
2023/01/27 19:15:22;;;;;;;;;;;;;;;;;;5059129;28;43041;-88
2023/01/27 19:17:48;;;;;;;;;;;;;;;;;;5059591;28;42995;-76
2023/01/27 19:20:14;;;;;;;;;;;;;;;;;;5058136;28;42996;-89
2023/01/27 19:22:40;;;;;;;;;;;;;;;;;;5046618;28;43227;-89
2023/01/27 19:25:06;;;;;;;;;;;;;;;;;;5049240;28;42942;-87
2023/01/27 19:27:32;;;;;;;;;;;;;;;;;;5044357;28;42995;-76
2023/01/27 19:29:58;;;;;;;;;;;;;;;;;;5058743;28;43644;-79
2023/01/27 19:32:24;;;;;;;;;;;;;;;;;;5058064;28;42746;-77
2023/01/27 19:34:51;;;;;;;;;;;;;;;;;;5057978;28;42948;-79
2023/01/27 19:37:17;;;;;;;;;;;;;;;;;;5064322;28;42922;-75
2023/01/27 19:39:43;;;;;;;;;;;;;;;;;;5064247;28;42773;-78
2023/01/27 19:42:09;;;;;;;;;;;;;;;;;;5063560;28;43077;-75
2023/01/27 19:44:35;;;;;;;;;;;;;;;;;;5057538;28;43827;-77
2023/01/27 19:47:01;;;;;;;;;;;;;;;;;;5055104;28;42932;-75
2023/01/27 19:49:27;;;;;;;;;;;;;;;;;;5052331;28;43493;-76
2023/01/27 19:51:53;;;;;;;;;;;;;;;;;;5049004;28;42924;-75
2023/01/27 19:54:19;;;;;;;;;;;;;;;;;;5044812;28;43001;-78
2023/01/27 19:56:45;;;;;;;;;;;;;;;;;;5063882;28;43054;-75
2023/01/27 19:59:11;;;;;;;;;;;;;;;;;;5062440;28;43369;-78
2023/01/27 20:01:37;;;;;;;;;;;;;;;;;;5064096;28;42998;-77
2023/01/27 20:04:02;;;;;;;;;;;;;;;;;;5063109;28;43793;-81
2023/01/27 20:06:28;;;;;;;;;;;;;;;;;;5050870;28;43010;-75
2023/01/27 20:08:54;;;;;;;;;;;;;;;;;;5058181;28;43005;-77
2023/01/27 20:11:20;;;;;;;;;;;;;;;;;;5036703;28;43131;-75
2023/01/27 20:13:46;;;;;;;;;;;;;;;;;;5034370;28;44482;-75
2023/01/27 20:16:12;;;;;;;;;;;;;;;;;;5039878;28;42975;-76
2023/01/27 20:18:38;;;;;;;;;;;;;;;;;;5061254;28;43100;-75
2023/01/27 20:21:04;;;;;;;;;;;;;;;;;;5056830;28;43137;-74
2023/01/27 20:23:30;;;;;;;;;;;;;;;;;;5049131;28;42968;-78
2023/01/27 20:25:56;;;;;;;;;;;;;;;;;;5058257;28;44084;-81
2023/01/27 20:28:22;;;;;;;;;;;;;;;;;;5044922;28;44475;-74
2023/01/27 20:30:48;;;;;;;;;;;;;;;;;;5062042;28;43076;-77
2023/01/27 20:33:14;;;;;;;;;;;;;;;;;;5056410;28;43980;-76
2023/01/27 20:35:40;;;;;;;;;;;;;;;;;;5055855;28;43041;-74
2023/01/27 20:38:06;;;;;;;;;;;;;;;;;;5057081;28;43025;-76
2023/01/27 20:40:31;;;;;;;;;;;;;;;;;;5055205;28;42949;-76
2023/01/27 20:42:59;;;;;;;;;;;;;;;;;;5052752;28;42999;-76
2023/01/27 20:45:25;;;;;;;;;;;;;;;;;;5058389;28;43018;-76
2023/01/27 20:47:51;;;;;;;;;;;;;;;;;;5048599;28;42908;-73
2023/01/27 20:50:17;;;;;;;;;;;;;;;;;;5044461;28;43166;-76
2023/01/27 20:52:43;;;;;;;;;;;;;;;;;;5044957;28;43911;-76
2023/01/27 20:55:10;;;;;;;;;;;;;;;;;;5044426;28;43110;-75
2023/01/27 20:57:36;;;;;;;;;;;;;;;;;;5030057;28;44607;-76
2023/01/27 21:00:02;;;;;;;;;;;;;;;;;;5063068;28;43119;-75
2023/01/27 21:02:28;;;;;;;;;;;;;;;;;;5044047;28;45068;-74
2023/01/27 21:04:54;;;;;;;;;;;;;;;;;;5054024;28;43146;-77
2023/01/27 21:07:20;;;;;;;;;;;;;;;;;;5028347;28;43026;-75
2023/01/27 21:09:46;;;;;;;;;;;;;;;;;;5051481;28;43042;-78
2023/01/27 21:12:11;;;;;;;;;;;;;;;;;;5028855;28;43010;-73
2023/01/27 21:14:37;;;;;;;;;;;;;;;;;;5033276;28;43087;-82
2023/01/27 21:17:03;;;;;;;;;;;;;;;;;;5047903;28;42964;-76
2023/01/27 21:19:29;;;;;;;;;;;;;;;;;;5051123;28;43012;-80
2023/01/27 21:21:55;;;;;;;;;;;;;;;;;;5057129;28;43882;-76
2023/01/27 21:24:22;;;;;;;;;;;;;;;;;;5053542;28;42983;-82
2023/01/27 21:26:50;;;;;;;;;;;;;;;;;;5056762;28;43477;-75
2023/01/27 21:29:16;;;;;;;;;;;;;;;;;;5065140;28;43122;-77
2023/01/27 21:31:42;;;;;;;;;;;;;;;;;;5045227;28;45679;-78
2023/01/27 21:34:09;;;;;;;;;;;;;;;;;;5046013;28;43268;-77
2023/01/27 21:36:35;;;;;;;;;;;;;;;;;;5046577;28;44022;-82
2023/01/27 21:39:01;;;;;;;;;;;;;;;;;;5067500;28;43080;-82
2023/01/27 21:46:56;;;;;;;;;;;;;;;;;;5060793;28;42939;-75
2023/01/27 21:49:22;;;;;;;;;;;;;;;;;;5064822;28;42988;-75
2023/01/27 21:51:47;;;;;;;;;;;;;;;;;;5063027;28;43226;-77
2023/01/27 21:54:13;;;;;;;;;;;;;;;;;;5045901;28;43039;-76
2023/01/27 21:56:39;;;;;;;;;;;;;;;;;;5064654;28;42875;-77
2023/01/27 21:59:05;;;;;;;;;;;;;;;;;;5064729;28;42951;-77
2023/01/27 22:01:33;;;;;;;;;;;;;;;;;;5065276;28;43174;-80
2023/01/27 22:03:58;;;;;;;;;;;;;;;;;;5064190;28;43421;-78
2023/01/27 22:06:24;;;;;;;;;;;;;;;;;;5064628;28;42977;-77
2023/01/27 22:08:51;;;;;;;;;;;;;;;;;;5056169;28;42889;-76
2023/01/27 22:11:17;;;;;;;;;;;;;;;;;;5061286;28;43966;-75
2023/01/27 22:13:42;;;;;;;;;;;;;;;;;;5064041;28;42896;-76
2023/01/27 22:16:08;;;;;;;;;;;;;;;;;;5046744;28;45414;-78
2023/01/27 22:18:34;;;;;;;;;;;;;;;;;;5063815;28;42975;-79
2023/01/27 22:21:00;;;;;;;;;;;;;;;;;;5064733;28;43385;-78
2023/01/27 22:23:26;;;;;;;;;;;;;;;;;;5065051;28;42986;-75
2023/01/27 22:25:52;;;;;;;;;;;;;;;;;;5064708;28;43734;-81
2023/01/27 22:28:18;;;;;;;;;;;;;;;;;;5064645;28;42943;-78
2023/01/27 22:30:44;;;;;;;;;;;;;;;;;;5064904;28;43392;-76
2023/01/27 22:33:10;;;;;;;;;;;;;;;;;;5064665;28;42975;-77
2023/01/27 22:35:36;;;;;;;;;;;;;;;;;;5064085;28;43086;-80
2023/01/27 22:38:02;;;;;;;;;;;;;;;;;;5045516;28;43183;-76
2023/01/27 22:40:27;;;;;;;;;;;;;;;;;;5064601;28;43887;-82
2023/01/27 22:42:53;;;;;;;;;;;;;;;;;;5045594;28;43722;-78
2023/01/27 22:45:19;;;;;;;;;;;;;;;;;;5064499;28;43820;-82
2023/01/27 22:47:45;;;;;;;;;;;;;;;;;;5064149;28;44153;-75
2023/01/27 22:50:11;;;;;;;;;;;;;;;;;;5064124;28;43479;-83
2023/01/27 22:52:37;;;;;;;;;;;;;;;;;;5063471;28;43078;-81
2023/01/27 22:55:03;;;;;;;;;;;;;;;;;;5064829;28;42987;-75
2023/01/27 22:57:30;;;;;;;;;;;;;;;;;;5064105;28;43053;-83
2023/01/27 22:59:56;;;;;;;;;;;;;;;;;;5062878;28;42971;-77
2023/01/27 23:02:22;;;;;;;;;;;;;;;;;;5059244;28;43066;-79
2023/01/27 23:04:48;;;;;;;;;;;;;;;;;;5056412;28;44673;-76
2023/01/27 23:07:14;;;;;;;;;;;;;;;;;;5063668;28;42880;-79
2023/01/27 23:09:39;;;;;;;;;;;;;;;;;;5049529;28;42976;-75
2023/01/27 23:12:05;;;;;;;;;;;;;;;;;;5060502;28;43423;-75
2023/01/27 23:14:31;;;;;;;;;;;;;;;;;;5058284;28;43640;-75
2023/01/27 23:16:57;;;;;;;;;;;;;;;;;;5061796;28;43012;-75
2023/01/27 23:19:23;;;;;;;;;;;;;;;;;;5038945;28;42941;-76
2023/01/27 23:21:49;;;;;;;;;;;;;;;;;;5039134;28;43422;-75
2023/01/27 23:24:15;;;;;;;;;;;;;;;;;;5050078;28;43224;-75
2023/01/27 23:26:41;;;;;;;;;;;;;;;;;;5064393;28;42906;-75
2023/01/27 23:29:07;;;;;;;;;;;;;;;;;;5044862;28;43767;-76
2023/01/27 23:31:33;;;;;;;;;;;;;;;;;;5064309;28;42959;-75
2023/01/27 23:33:58;;;;;;;;;;;;;;;;;;5063813;28;43666;-75
2023/01/27 23:36:25;;;;;;;;;;;;;;;;;;5064302;28;42975;-76